Create Custom Reports and Graphics: Custom Report

Lindcove R.E.C.

Current Conditions

10/21/20 8:00 AM (-07:00)
Updated Every 15 Minutes
Temp 52.2 °F   0.3
Upper Temp 59.7 °F   1.1
Temp Inversion 7.5 °F   0.8
RH 87 %   2
Dew Pt 48.4 °F   0.2
Wind Dir SW | 215 °
Wind Spd 0.3 mph   0.8
Wind Gust 1.3 mph   1.5
BatVolt 12.7 V   0.0

Today & Yesterday

Lindcove R.E.C.

10/21/20 8:00 AM (-07:00)
Updated Every 15 Minutes
Daily Max Temp 56.2 °F   0.0
Time of Max Temp 0120
Daily Min Temp 51.2 °F   0.4
Time of Min Temp 0712
Upper Max Temp 65.6 °F   0.9
Upper Min Temp 56.4 °F   0.2
Daily Max Wind 3.1 mph   0.0
Time of Max Wind 0357
Max Wind Dir SSE | 168 °
Daily Rain 0.00 In
Yesterday's Max Temp 89.4 °F
Yesterday’s Min Temp 50.8 °F
Yesterday's Max Wind 7.7 mph
Yesterday's Rainfall 0.00 In
Monthly Rain 0.00 In
Seasonal Rainfall 0.00 In

Daily Meteorological Summary

Last 30 Days

Daily Data | America/Los_Angeles
as of 10/21/20 8:26 AM PDT
Date Daily Max Temp (°F) Time of Max Temp Daily Min Temp (°F) Time of Min Temp Daily Rain (In) Seasonal Rainfall (In) Wind Spd (mph) Daily Max Wind (mph) Time of Max Wind Max Wind Dir (°) Dew Pt (°F) Max RH (%) Min RH (%) Upper Max Temp (°F) Max Upper Temp Time Upper Min Temp (°F) Min Upper Temp Time Max Temp Inversion (°F) Time of Max Temp Inversion Min Temp Inversion (°F) Time of Min Temp Inversion Bat Volt Min Day (V)
10/20/20 89.4 1430 50.8 0710 0.00 0.00 1.2 7.7 1500 WSW | 244 48.5 94 12 85.8 1624 56.6 0648 13.1 0553 -5.0 1423 12.4
10/19/20 93.3 1515 51.6 0652 0.00 0.00 1.2 9.4 1343 SW | 220 48.9 94 12 89.7 1515 57.2 0728 12.1 1932 -4.9 1458 12.4
10/18/20 96.3 1420 53.1 0710 0.00 0.00 1.3 8.8 1302 W | 275 49.2 94 12 91.5 1432 59.5 0656 14.2 0616 -6.4 1420 12.4
10/17/20 95.6 1449 51.4 0708 0.00 0.00 1.2 8.6 1508 WSW | 248 50.6 94 12 91.6 1532 57.0 0654 12.2 1856 -6.3 1423 12.4
10/16/20 94.5 1552 52.5 0710 0.00 0.00 1.0 6.4 1553 WSW | 239 52.7 94 12 90.6 1527 57.3 0657 12.3 1946 -6.3 1412 12.4
10/15/20 92.1 1536 53.8 0658 0.00 0.00 1.1 8.1 1352 SW | 230 52.7 94 12 89.0 1524 58.7 0617 11.6 1950 -5.7 1419 12.4
10/14/20 89.5 1536 53.8 0658 0.00 0.00 1.3 9.6 1322 SW | 226 53.3 94 12 86.2 1539 58.7 0620 11.3 0346 -5.1 1157 12.4
10/13/20 89.7 1607 53.4 0719 0.00 0.00 1.2 9.9 1246 NW | 310 53.0 94 12 86.0 1613 57.3 0705 10.9 2015 -6.4 1408 12.4
10/12/20 87.3 1540 53.4 0614 0.00 0.00 1.2 8.6 1252 WSW | 242 54.6 94 12 83.7 1535 56.8 0601 9.7 2027 -5.3 1504 12.4
10/11/20 82.9 1538 52.9 0653 0.00 0.00 1.7 12.7 1041 SW | 223 54.0 93 12 79.5 1618 55.1 0731 8.2 2101 -6.2 1410 12.4
10/10/20 83.3 1603 51.6 0606 0.00 0.00 1.4 9.6 1137 SW | 230 51.2 93 12 80.4 1602 54.5 0729 9.2 0227 -5.9 1212 12.4
10/9/20 81.7 1433 52.0 0700 0.00 0.00 1.5 10.7 1250 SSW | 208 52.0 93 12 77.9 1533 53.6 0729 8.8 1950 -5.6 1434 12.4
10/8/20 86.0 1611 56.3 0059 0.00 0.00 1.5 11.8 1308 WSW | 242 51.3 93 12 84.3 1553 60.6 0058 11.6 0525 -3.8 1354 12.5
10/7/20 92.2 1553 53.9 0654 0.00 0.00 1.2 8.1 1307 WSW | 248 51.6 93 12 89.5 1449 58.6 0645 11.1 2008 -4.4 1512 12.4
10/6/20 90.8 1415 54.6 0725 0.00 0.00 1.0 6.8 1302 SW | 223 53.4 93 12 88.0 1417 60.6 0645 12.2 0503 -3.8 1423 12.4
10/5/20 95.2 1528 57.3 0703 0.00 0.00 1.3 12.1 1341 SW | 228 51.3 92 12 91.8 1527 62.0 0653 12.9 1944 -4.9 1359 12.5
10/4/20 96.2 1405 57.0 0658 0.00 0.00 1.1 7.7 1252 WNW | 296 52.8 92 12 93.4 1614 63.1 0644 11.3 0303 -5.4 1406 12.4
10/3/20 96.2 1444 57.2 0654 0.00 0.00 1.0 8.3 1402 WNW | 295 53.9 92 12 92.6 1605 62.9 0602 13.9 0648 -5.5 1403 12.4
10/2/20 97.0 1434 56.5 0625 0.00 0.00 1.0 7.9 1350 WNW | 282 51.9 92 12 93.8 1638 62.3 0705 14.6 0625 -4.9 1158 12.4
10/1/20 98.4 1453 57.7 0659 0.00 0.00 1.0 7.2 1328 SW | 220 53.0 92 12 96.0 1453 63.8 0734 14.1 2321 -5.0 1402 12.5
9/30/20 95.8 1524 57.7 0620 0.00 0.00 1.5 11.4 1257 SSW | 213 52.5 92 12 92.6 1532 63.6 0733 15.6 0544 -5.0 1452 12.4
9/29/20 101.7 1601 58.2 0702 0.00 0.00 1.3 10.5 1446 W | 261 50.6 92 12 99.4 1644 63.8 0729 15.8 2008 -5.3 1441 12.4
9/28/20 95.9 1518 59.1 0632 0.00 0.00 1.1 7.9 1514 SW | 222 57.8 92 12 93.2 1622 64.0 0539 11.4 2149 -4.8 1517 12.5
9/27/20 90.8 1608 58.8 0659 0.00 0.00 1.0 7.9 1243 SSW | 212 56.1 92 12 89.1 1604 63.4 0551 9.4 1953 -4.5 1221 12.4
9/26/20 89.6 1605 57.3 0647 0.00 0.00 1.7 11.2 1307 SW | 227 54.6 92 12 86.9 1618 61.1 0746 8.5 0355 -6.2 1156 12.5
9/25/20 88.9 1527 55.3 0650 0.00 0.00 1.5 12.7 1139 SSW | 194 55.2 92 12 86.8 1529 58.7 0705 10.2 0217 -5.6 1407 12.5
9/24/20 90.3 1427 53.8 0559 0.00 0.00 1.3 10.7 1212 SSW | 203 51.8 92 12 87.1 1641 59.3 0735 11.8 0547 -5.5 1427 12.5
9/23/20 86.6 1534 55.0 0713 0.00 0.00 1.3 9.4 1313 WSW | 237 52.1 92 12 84.6 1546 58.6 0621 12.2 2314 -3.8 1315 12.4
9/22/20 95.1 1455 56.5 0650 0.00 0.00 1.7 14.5 1209 SW | 214 53.0 92 12 91.9 1605 60.6 0649 12.8 0039 -5.4 1359 12.4
9/21/20 97.3 1535 56.4 0644 0.00 0.00 1.3 8.8 1539 SW | 225 53.8 92 12 93.8 1635 61.4 0630 12.6 1942 -5.5 1533 12.5
Max 101.7 - 59.1 - 0.00 - 1.7 14.5 - - 57.8 94 12 99.4 - 64.0 - 15.8 - -3.8 - 12.5
Avg - - - - - - 1.3 - - - 52.6 - - - - - - - - - - -
Min 81.7 - 50.8 - 0.00 - 1.0 6.4 - - 48.5 92 12 77.9 - 53.6 - 8.2 - -6.4 - 12.4

Daily Bio-Meteorological Summary

Last 30 Days

Daily Data | America/Los_Angeles
as of 10/21/20 8:26 AM PDT
Date Daily Max Temp (°F) Daily Min Temp (°F) Daily Rain (In) GDDs (DL) GDDs (Mx/Mn) Seas GDDs (DL) Seas GDDs (Smpl) Chilling <=45F (hrs) Chill Hrs 32-45F (hrs) Utah Chilling (Units) Chill Portions Hrs 70-85F (hrs) Hrs > 95F (hrs) Powdery Mildew Stress (pts) Bee Hrs Today (Hrs) Hrs <= 32F (hrs) Hrs <= 28F (hrs)
10/20/20 89.4 50.8 0.00 17.4 20.1 5,018 5,198 0.0 0.0 0.0 0 2.78 0.00 0 9.7 0.0 0.0
10/19/20 93.3 51.6 0.00 18.5 22.4 5,000 5,178 0.0 0.0 0.0 0 2.14 0.00 0 9.8 0.0 0.0
10/18/20 96.3 53.1 0.00 20.7 24.7 4,982 5,155 0.0 0.0 0.0 0 1.94 0.28 10 10.1 0.0 0.0
10/17/20 95.6 51.4 0.00 20.1 23.5 4,961 5,130 0.0 0.0 0.0 0 1.86 0.08 20 9.9 0.0 0.0
10/16/20 94.5 52.5 0.00 19.4 23.5 4,941 5,107 0.0 0.0 0.0 0 2.41 0.00 30 9.9 0.0 0.0
10/15/20 92.1 53.8 0.00 19.8 23.0 4,921 5,083 0.0 0.0 0.0 0 2.36 0.00 40 10.2 0.0 0.0
10/14/20 89.5 53.8 0.00 19.0 21.7 4,902 5,060 0.0 0.0 -14.5 0 3.07 0.00 50 10.3 0.0 0.0
10/13/20 89.7 53.4 0.00 18.8 21.6 4,883 5,039 0.0 0.0 0.0 0 2.82 0.00 60 10.2 0.0 0.0
10/12/20 87.3 53.4 0.00 17.2 20.4 4,864 5,017 0.0 0.0 0.0 0 4.60 0.00 70 10.5 0.0 0.0
10/11/20 82.9 52.9 0.00 15.5 17.9 4,847 4,997 0.0 0.0 0.0 0 8.28 0.00 80 10.2 0.0 0.0
10/10/20 83.3 51.6 0.00 15.6 17.4 4,831 4,979 0.0 0.0 0.0 0 8.10 0.00 60 10.1 0.0 0.0
10/9/20 81.7 52.0 0.00 14.2 16.8 4,816 4,961 0.0 0.0 0.0 0 7.72 0.00 40 9.9 0.0 0.0
10/8/20 86.0 56.3 0.00 18.2 21.2 4,801 4,945 0.0 0.0 0.0 0 8.76 0.00 20 10.9 0.0 0.0
10/7/20 92.2 53.9 0.00 20.4 23.1 4,783 4,923 0.0 0.0 -15.5 0 2.36 0.00 0 10.6 0.0 0.0
10/6/20 90.8 54.6 0.00 19.9 22.7 4,763 4,900 0.0 0.0 -14.5 0 3.44 0.00 0 10.8 0.0 0.0
10/5/20 95.2 57.3 0.00 21.7 26.2 4,743 4,878 0.0 0.0 0.0 0 2.36 0.05 0 11.0 0.0 0.0
10/4/20 96.2 57.0 0.00 24.4 26.6 4,721 4,851 0.0 0.0 -16.0 0 3.94 1.41 0 11.1 0.0 0.0
10/3/20 96.2 57.2 0.00 24.0 26.7 4,697 4,825 0.0 0.0 -16.5 0 3.10 0.74 0 11.1 0.0 0.0
10/2/20 97.0 56.5 0.00 24.0 26.7 4,673 4,798 0.0 0.0 -15.5 0 2.56 2.59 0 11.1 0.0 0.0
10/1/20 98.4 57.7 0.00 24.0 28.1 4,649 4,771 0.0 0.0 -15.5 0 2.42 2.38 0 11.2 0.0 0.0
9/30/20 95.8 57.7 0.00 23.8 26.7 4,625 4,743 0.0 0.0 -16.5 0 5.55 0.38 0 11.2 0.0 0.0
9/29/20 101.7 58.2 0.00 27.8 29.9 4,601 4,717 0.0 0.0 -17.0 0 5.55 4.15 0 11.2 0.0 0.0
9/28/20 95.9 59.1 0.00 24.3 27.5 4,573 4,687 0.0 0.0 -17.5 0 2.70 0.22 0 11.3 0.0 0.0
9/27/20 90.8 58.8 0.00 23.2 24.8 4,549 4,659 0.0 0.0 -16.5 0 3.30 0.00 0 11.3 0.0 0.0
9/26/20 89.6 57.3 0.00 22.1 23.4 4,526 4,634 0.0 0.0 -16.5 0 4.28 0.00 0 11.4 0.0 0.0
9/25/20 88.9 55.3 0.00 20.0 22.1 4,503 4,611 0.0 0.0 -15.0 0 4.49 0.00 10 11.4 0.0 0.0
9/24/20 90.3 53.8 0.00 19.4 22.0 4,484 4,589 0.0 0.0 -15.0 0 2.96 0.00 20 11.2 0.0 0.0
9/23/20 86.6 55.0 0.00 19.0 20.8 4,464 4,567 0.0 0.0 0.0 0 4.16 0.00 30 11.5 0.0 0.0
9/22/20 95.1 56.5 0.00 23.2 25.8 4,445 4,546 0.0 0.0 -15.5 0 2.30 0.00 40 11.5 0.0 0.0
9/21/20 97.3 56.4 0.00 23.6 26.8 4,422 4,520 0.0 0.0 -16.0 0 2.30 1.46 50 11.6 0.0 0.0
Max 101.7 59.1 0.00 27.8 29.9 - - 0.0 0.0 0.0 0 8.76 4.15 80 11.6 0.0 0.0
Avg - - - 20.6 23.5 - - 0.0 0.0 -8.4 0 3.82 0.46 - 10.7 0.0 0.0
Min 81.7 50.8 0.00 14.2 16.8 - - 0.0 0.0 -17.5 0 1.86 0.00 0 9.7 0.0 0.0
Total - - - 619.2 704.2 - - 0.0 0.0 -253.5 - 114.59 13.74 - 322.5 0.0 0.0

Climate Summary

Lindcove R.E.C.

Current Year | Showing 1/1/20 - 10/20/20
as of 10/21/20 8:26 AM PDT
Temperature (°F) Precip (in) Days
Month Days Avg Max Avg Min Max Max Min Min Total Daily Min Temp < 28 Daily Min Temp < 32 Daily Max Temp > 90 Daily Max Temp > 100 Daily Rain > 0.01 Daily Rain > 0.1
Jan 2020 31 60.7 37.8 69.2 31.5 0.56 0 2 0 0 1 1
Feb 2020 29 72.1 36.3 86.4 26.9 0.34 2 7 0 0 1 1
Mar 2020 31 69.6 42.1 87.1 33.2 2.19 0 0 0 0 9 6
Apr 2020 30 77.4 49.8 95.7 37.2 2.4 0 0 4 0 7 6
May 2020 31 89.7 53.9 108.2 45.3 0.38 0 0 12 6 1 1
Jun 2020 30 95.8 59.8 107.5 47.1 0 0 0 20 13 0 0
Jul 2020 31 101.3 62.7 108.7 55.4 0.1 0 0 31 19 2 0
Aug 2020 31 101.6 65.7 111 58.9 0 0 0 31 22 0 0
Sep 2020 30 93.3 59.5 107.3 53.3 0 0 0 20 4 0 0
Oct 2020 20 91.4 54 98.4 50.8 0 0 0 12 0 0 0
Total 294 - - - - 5.97 2 9 130 64 21 15
Average 29.4 85.3 52.1 - - 0.6 0.2 0.9 13 6.4 2.1 1.5
Maximum 31 101.6 65.7 111 - 2.4 2 7 31 22 9 6
Minimum 20 60.7 36.3 - 26.9 0 0 0 0 0 0 0

Climate Summary

Lindcove R.E.C.

Last Year | Showing 1/1/19 - 12/31/19
as of 10/21/20 8:26 AM PDT
Temperature (°F) Precip (in) Days
Month Days Avg Max Avg Min Max Max Min Min Total Daily Min Temp < 28 Daily Min Temp < 32 Daily Max Temp > 90 Daily Max Temp > 100 Daily Rain > 0.01 Daily Rain > 0.1
Jan 2019 31 65.1 39.3 73.2 27.7 1.78 1 5 0 0 9 5
Feb 2019 28 60.9 37.6 74.6 26.9 3.52 1 11 0 0 14 8
Mar 2019 31 70.3 42.3 84.5 34.4 2.55 0 0 0 0 8 4
Apr 2019 30 82.4 49.5 97.3 38.3 0.62 0 0 8 0 3 2
May 2019 31 80.3 52.2 92.7 45.7 2 0 0 6 0 8 5
Jun 2019 30 97.5 61.1 108.7 49.6 0 0 0 28 12 0 0
Jul 2019 31 100.6 63.5 109.4 56.1 0 0 0 31 17 0 0
Aug 2019 31 101 64.7 107.9 57.4 0 0 0 31 18 0 0
Sep 2019 30 93.4 57.3 105.9 40.4 0 0 0 17 11 0 0
Oct 2019 31 82.9 43.5 93.5 32.8 0 0 0 5 0 0 0
Nov 2019 30 74.1 38.7 85.5 30.7 1.19 0 2 0 0 4 3
Dec 2019 31 62.3 39.5 72.8 30.5 2.37 0 1 0 0 8 6
Total 365 - - - - 14.03 2 19 126 58 54 33
Average 30.4 80.9 49.1 - - 1.17 0.2 1.6 10.5 4.8 4.5 2.8
Maximum 31 101 64.7 109.4 - 3.52 1 11 31 18 14 8
Minimum 28 60.9 37.6 - 26.9 0 0 0 0 0 0 0
Calm: 0.0%
Calm: 0.0%